Time;durP1;ratioP1;P1;durP2;ratioP2;P2;SDS_P1;SDS_P2;PMS_P1;PMS_P2;Temp;Humidity;BMP_temperature;BMP_pressure;BME280_temperature;BME280_humidity;BME280_pressure;Samples;Min_cycle;Max_cycle;Signal;HPM_P1;HPM_P2
2023/03/05 00:00:13;;;;;;;14.10;2.28;;;5.70;99.90;;;;;;5053198;28;20029;-72
2023/03/05 00:02:39;;;;;;;10.27;2.33;;;5.80;99.90;;;;;;5051858;28;20366;-73
2023/03/05 00:05:06;;;;;;;7.40;2.33;;;5.80;99.90;;;;;;5053209;28;20009;-73
2023/03/05 00:07:32;;;;;;;15.85;2.45;;;5.90;99.90;;;;;;5053120;28;20493;-72
2023/03/05 00:10:03;;;;;;;17.15;2.58;;;5.90;99.90;;;;;;5052966;28;20260;-72
2023/03/05 00:12:29;;;;;;;17.55;2.55;;;6.00;99.90;;;;;;5051537;28;20025;-73
2023/03/05 00:14:55;;;;;;;18.10;2.42;;;5.90;99.90;;;;;;5051954;28;20060;-71
2023/03/05 00:17:21;;;;;;;8.93;1.63;;;5.90;99.90;;;;;;5053444;28;20064;-71
2023/03/05 00:19:46;;;;;;;22.15;2.65;;;5.90;99.90;;;;;;5051781;28;20033;-72
2023/03/05 00:22:12;;;;;;;12.05;2.45;;;6.00;99.90;;;;;;5052952;28;20479;-72
2023/03/05 00:24:38;;;;;;;16.35;3.25;;;5.90;99.90;;;;;;5052477;28;20033;-72
2023/03/05 00:27:04;;;;;;;6.72;1.50;;;5.80;99.90;;;;;;5052478;28;20052;-72
2023/03/05 00:29:30;;;;;;;10.40;2.05;;;5.80;99.90;;;;;;5051538;28;20025;-72
2023/03/05 00:31:55;;;;;;;13.38;1.95;;;5.70;99.90;;;;;;5052419;28;20482;-72
2023/03/05 00:34:21;;;;;;;13.80;2.25;;;5.60;99.90;;;;;;5051294;28;20037;-71
2023/03/05 00:36:51;;;;;;;12.30;3.00;;;5.70;99.90;;;;;;5052428;28;20045;-72
2023/03/05 00:39:18;;;;;;;9.75;2.08;;;5.70;99.90;;;;;;5052481;28;20434;-73
2023/03/05 00:41:43;;;;;;;10.80;2.38;;;5.70;99.90;;;;;;5052382;28;20021;-73
2023/03/05 00:44:09;;;;;;;6.35;2.00;;;5.80;99.90;;;;;;5052562;28;20025;-73
2023/03/05 00:46:35;;;;;;;6.60;2.13;;;6.00;99.90;;;;;;5051080;28;20124;-73
2023/03/05 00:49:01;;;;;;;8.57;1.30;;;5.80;99.90;;;;;;5052181;28;20025;-73
2023/03/05 00:51:27;;;;;;;10.93;2.22;;;5.60;99.90;;;;;;5052208;28;20060;-71
2023/03/05 00:53:53;;;;;;;11.98;1.73;;;5.70;99.90;;;;;;5052395;28;20095;-73
2023/03/05 00:56:19;;;;;;;13.57;2.08;;;5.80;99.90;;;;;;5052470;28;20454;-73
2023/03/05 00:58:45;;;;;;;14.55;2.45;;;5.70;99.90;;;;;;5050770;28;20371;-72
2023/03/05 01:01:10;;;;;;;10.82;1.73;;;5.80;99.90;;;;;;5052265;28;20483;-73
2023/03/05 01:03:36;;;;;;;13.10;2.00;;;5.70;99.90;;;;;;5051872;28;20043;-72
2023/03/05 01:06:08;;;;;;;8.43;2.17;;;5.60;99.90;;;;;;5050866;28;20040;-72
2023/03/05 01:08:34;;;;;;;11.77;1.73;;;5.60;99.90;;;;;;5050810;28;20104;-73
2023/03/05 01:11:00;;;;;;;16.23;2.15;;;5.80;99.90;;;;;;5052180;28;20025;-72
2023/03/05 01:13:26;;;;;;;18.60;2.33;;;5.70;99.90;;;;;;5051846;28;20500;-73
2023/03/05 01:15:52;;;;;;;11.40;1.75;;;5.80;99.90;;;;;;5051627;28;20463;-72
2023/03/05 01:18:19;;;;;;;11.18;2.38;;;5.80;99.90;;;;;;5051615;28;20056;-73
2023/03/05 01:20:45;;;;;;;16.35;2.35;;;5.70;99.90;;;;;;5051644;28;20104;-73
2023/03/05 01:23:11;;;;;;;19.40;2.45;;;5.50;99.90;;;;;;5051945;28;20433;-73
2023/03/05 01:25:37;;;;;;;13.60;2.28;;;5.50;99.90;;;;;;5051220;28;20039;-73
2023/03/05 01:28:02;;;;;;;13.63;2.00;;;5.40;99.90;;;;;;5051263;28;20116;-74
2023/03/05 01:30:37;;;;;;;14.10;2.53;;;5.50;99.90;;;;;;5070174;27;20382;-72
2023/03/05 01:33:03;;;;;;;8.77;2.13;;;5.60;99.90;;;;;;5080312;28;20107;-75
2023/03/05 01:35:28;;;;;;;16.08;3.60;;;5.50;99.90;;;;;;5048420;28;20091;-73
2023/03/05 01:37:55;;;;;;;12.93;2.30;;;5.60;99.90;;;;;;5048131;28;20025;-73
2023/03/05 01:40:26;;;;;;;19.13;2.38;;;5.60;99.90;;;;;;5047966;28;20260;-73
2023/03/05 01:43:26;;;;;;;8.65;2.25;;;5.60;99.90;;;;;;5046873;28;20040;-73
2023/03/05 01:46:24;;;;;;;13.15;2.58;;;5.40;99.90;;;;;;5046548;28;20429;-72
2023/03/05 01:49:05;;;;;;;16.10;1.70;;;5.30;99.90;;;;;;5047655;28;20405;-73
2023/03/05 01:52:18;;;;;;;17.30;2.38;;;5.40;99.90;;;;;;5080051;28;20045;-72
2023/03/05 01:54:59;;;;;;;11.38;2.17;;;5.40;99.90;;;;;;5042807;28;20033;-72
2023/03/05 01:57:32;;;;;;;7.93;2.03;;;5.50;99.90;;;;;;5047572;28;20104;-71
2023/03/05 02:00:04;;;;;;;17.10;2.35;;;5.30;99.90;;;;;;5047366;28;20471;-71
2023/03/05 02:02:31;;;;;;;14.70;2.20;;;5.20;99.90;;;;;;5048104;28;20104;-73
2023/03/05 02:05:05;;;;;;;15.07;1.93;;;5.40;99.90;;;;;;5047728;28;20102;-73
2023/03/05 02:07:32;;;;;;;14.07;2.72;;;5.40;99.90;;;;;;5046432;28;20371;-72
2023/03/05 02:09:58;;;;;;;12.90;2.53;;;5.50;99.90;;;;;;5046319;28;20071;-73
2023/03/05 02:12:24;;;;;;;7.88;1.70;;;5.40;99.90;;;;;;5047640;28;20053;-73
2023/03/05 02:14:57;;;;;;;9.90;2.30;;;5.40;99.90;;;;;;5046412;28;20044;-72
2023/03/05 02:17:26;;;;;;;12.82;1.73;;;5.60;99.90;;;;;;5046677;28;20036;-72
2023/03/05 02:19:55;;;;;;;17.58;2.45;;;5.30;99.90;;;;;;5046118;28;20029;-71
2023/03/05 02:22:22;;;;;;;14.88;2.28;;;5.40;99.90;;;;;;5047398;28;20067;-72
2023/03/05 02:24:49;;;;;;;16.95;1.70;;;5.50;99.90;;;;;;5047101;28;20513;-72
2023/03/05 02:27:15;;;;;;;12.77;1.63;;;5.50;99.90;;;;;;5045970;28;20476;-72
2023/03/05 02:29:43;;;;;;;8.80;1.85;;;5.50;99.90;;;;;;5045703;28;20079;-71
2023/03/05 02:32:10;;;;;;;10.77;2.00;;;5.40;99.90;;;;;;5046345;28;20341;-73
2023/03/05 02:34:36;;;;;;;10.10;2.10;;;5.50;99.90;;;;;;5045855;28;20072;-72
2023/03/05 02:37:03;;;;;;;10.07;1.90;;;5.50;99.90;;;;;;5045659;28;20387;-72
2023/03/05 02:39:32;;;;;;;11.82;1.83;;;5.50;99.90;;;;;;5046735;28;20368;-72
2023/03/05 02:41:58;;;;;;;12.93;2.10;;;5.30;99.90;;;;;;5033324;28;20033;-72
2023/03/05 02:44:24;;;;;;;17.27;2.53;;;5.50;99.90;;;;;;5032701;28;20500;-72
2023/03/05 02:46:49;;;;;;;18.48;2.25;;;5.50;99.90;;;;;;5033643;28;20041;-72
2023/03/05 02:49:15;;;;;;;11.38;1.88;;;5.40;99.90;;;;;;5033361;28;20112;-70
2023/03/05 02:51:41;;;;;;;14.52;1.90;;;5.50;99.90;;;;;;5032381;28;20029;-72
2023/03/05 02:54:06;;;;;;;10.77;2.22;;;5.70;99.90;;;;;;5032232;28;20149;-72
2023/03/05 02:56:32;;;;;;;12.15;2.20;;;5.40;99.90;;;;;;5032305;28;20447;-73
2023/03/05 02:58:58;;;;;;;13.45;2.45;;;5.40;99.90;;;;;;5033952;28;20036;-72
2023/03/05 03:01:26;;;;;;;9.65;1.92;;;5.50;99.90;;;;;;5033634;28;20115;-71
2023/03/05 03:03:53;;;;;;;8.88;2.15;;;5.50;99.90;;;;;;5032334;28;20041;-71
2023/03/05 03:06:19;;;;;;;13.30;2.53;;;5.50;99.90;;;;;;5032254;28;20026;-71
2023/03/05 03:08:44;;;;;;;11.85;2.10;;;5.50;99.90;;;;;;5033541;28;20035;-71
2023/03/05 03:11:12;;;;;;;8.70;2.00;;;5.50;99.90;;;;;;5032625;28;20056;-72
2023/03/05 03:13:38;;;;;;;9.35;2.63;;;5.50;99.90;;;;;;5032909;28;20116;-71
2023/03/05 03:16:09;;;;;;;9.50;1.85;;;5.60;99.90;;;;;;5032760;28;20383;-71
2023/03/05 03:18:35;;;;;;;9.05;2.08;;;5.60;99.90;;;;;;5032790;28;20064;-71
2023/03/05 03:21:01;;;;;;;9.90;2.00;;;5.60;99.90;;;;;;5031751;28;20120;-71
2023/03/05 03:23:27;;;;;;;15.65;2.17;;;5.50;99.90;;;;;;5033293;28;20513;-72
2023/03/05 03:25:53;;;;;;;14.48;1.73;;;5.60;99.90;;;;;;5033480;28;20483;-72
2023/03/05 03:28:19;;;;;;;3.45;1.20;;;5.70;99.90;;;;;;5032653;28;20049;-72
2023/03/05 03:30:45;;;;;;;10.35;1.60;;;5.60;99.90;;;;;;5031462;28;20053;-73
2023/03/05 03:33:10;;;;;;;7.38;2.10;;;5.50;99.90;;;;;;5032814;28;20033;-71
2023/03/05 03:35:37;;;;;;;5.93;1.75;;;5.50;99.90;;;;;;5032190;28;20104;-73
2023/03/05 03:38:02;;;;;;;8.13;1.58;;;5.40;99.90;;;;;;5032938;28;20021;-72
2023/03/05 03:40:28;;;;;;;2.88;1.33;;;5.50;99.90;;;;;;5032464;28;20040;-72
2023/03/05 03:42:54;;;;;;;8.05;1.95;;;5.30;99.90;;;;;;5031582;28;20112;-72
2023/03/05 03:45:23;;;;;;;12.25;2.13;;;5.40;99.90;;;;;;5032736;28;20040;-73
2023/03/05 03:47:50;;;;;;;11.50;1.90;;;5.30;99.90;;;;;;5031247;28;20026;-73
2023/03/05 03:50:16;;;;;;;9.25;1.60;;;5.40;99.90;;;;;;5031676;28;20048;-72
2023/03/05 03:52:42;;;;;;;5.47;1.77;;;5.40;99.90;;;;;;5031419;28;20033;-73
2023/03/05 03:55:08;;;;;;;2.63;1.30;;;5.50;99.90;;;;;;5032269;28;20405;-72
2023/03/05 03:57:35;;;;;;;9.35;1.88;;;5.40;99.90;;;;;;5031962;28;20367;-73
2023/03/05 04:00:05;;;;;;;12.57;2.35;;;5.10;99.90;;;;;;5031987;28;20029;-71
2023/03/05 04:02:31;;;;;;;12.30;2.85;;;5.10;99.90;;;;;;5032727;28;20014;-72
2023/03/05 04:04:57;;;;;;;13.75;2.25;;;5.10;99.90;;;;;;5031966;28;20523;-71
2023/03/05 04:07:23;;;;;;;15.88;2.13;;;5.20;99.90;;;;;;5032041;28;20364;-71
2023/03/05 04:09:49;;;;;;;8.30;2.25;;;5.20;99.90;;;;;;5031764;28;20037;-73
2023/03/05 04:12:17;;;;;;;6.72;1.55;;;5.30;99.90;;;;;;5031941;28;20029;-72
2023/03/05 04:14:44;;;;;;;5.30;1.83;;;5.30;99.90;;;;;;5031576;28;20036;-71
2023/03/05 04:17:10;;;;;;;11.37;2.03;;;5.30;99.90;;;;;;5031288;28;20048;-72
2023/03/05 04:19:36;;;;;;;11.75;2.13;;;5.30;99.90;;;;;;5031518;28;20029;-72
2023/03/05 04:22:01;;;;;;;9.30;2.17;;;5.20;99.90;;;;;;5031576;28;20060;-71
2023/03/05 04:24:27;;;;;;;8.95;1.75;;;5.30;99.90;;;;;;5030457;28;20041;-72
2023/03/05 04:26:53;;;;;;;4.82;1.40;;;5.30;99.90;;;;;;5031612;28;20025;-71
2023/03/05 04:29:19;;;;;;;6.35;1.65;;;5.30;99.90;;;;;;5031559;28;20427;-71
2023/03/05 04:31:44;;;;;;;4.90;1.85;;;5.30;99.90;;;;;;5031842;28;20036;-71
2023/03/05 04:34:10;;;;;;;9.18;2.05;;;5.40;99.90;;;;;;5031628;28;20029;-73
2023/03/05 04:36:35;;;;;;;5.22;1.75;;;5.50;99.90;;;;;;5030268;28;20040;-72
2023/03/05 04:39:01;;;;;;;9.90;2.13;;;5.60;99.90;;;;;;5031157;28;20021;-72
2023/03/05 04:41:27;;;;;;;9.07;1.90;;;5.60;99.90;;;;;;5031689;28;20106;-72
2023/03/05 04:43:53;;;;;;;6.60;1.70;;;5.60;99.90;;;;;;5031296;28;20030;-71
2023/03/05 04:46:19;;;;;;;11.30;1.73;;;5.60;99.90;;;;;;5031107;28;20037;-73
2023/03/05 04:48:44;;;;;;;7.32;1.98;;;5.40;99.90;;;;;;5031061;28;20080;-72
2023/03/05 04:51:10;;;;;;;6.78;2.72;;;5.50;99.90;;;;;;5029895;28;20030;-72
2023/03/05 04:53:36;;;;;;;6.05;1.35;;;5.50;99.90;;;;;;5031025;28;20021;-72
2023/03/05 04:56:02;;;;;;;7.93;1.80;;;5.40;99.90;;;;;;5031417;28;20048;-72
2023/03/05 04:58:28;;;;;;;8.10;2.13;;;5.50;99.90;;;;;;5031059;28;20042;-72
2023/03/05 05:00:53;;;;;;;12.48;2.53;;;5.60;99.90;;;;;;5031032;28;20045;-72
2023/03/05 05:03:19;;;;;;;8.30;2.00;;;5.50;99.90;;;;;;5030618;28;20021;-72
2023/03/05 05:05:44;;;;;;;9.18;1.88;;;5.40;99.90;;;;;;5030987;28;20028;-72
2023/03/05 05:08:10;;;;;;;8.25;2.35;;;5.40;99.90;;;;;;5031240;28;20072;-72
2023/03/05 05:10:38;;;;;;;7.55;1.90;;;5.40;99.90;;;;;;5029648;28;20379;-72
2023/03/05 05:13:04;;;;;;;;;;;5.30;99.90;;;;;;5030112;28;20034;-72
2023/03/05 05:15:31;;;;;;;11.90;2.05;;;5.40;99.90;;;;;;5029711;28;19909;-73
2023/03/05 05:17:57;;;;;;;11.20;2.00;;;5.30;99.90;;;;;;5029575;28;20033;-73
2023/03/05 05:20:23;;;;;;;8.43;2.03;;;5.40;99.90;;;;;;5031064;28;20480;-71
2023/03/05 05:22:49;;;;;;;8.82;2.20;;;5.30;99.90;;;;;;5030637;28;20096;-73
2023/03/05 05:25:14;;;;;;;5.88;1.90;;;5.30;99.90;;;;;;5029525;28;20072;-72
2023/03/05 05:27:40;;;;;;;6.25;1.67;;;5.20;99.90;;;;;;5030474;28;20049;-71
2023/03/05 05:30:06;;;;;;;6.72;1.98;;;5.30;99.90;;;;;;5030202;28;20053;-71
2023/03/05 05:32:32;;;;;;;5.20;1.80;;;5.20;99.90;;;;;;5030471;28;20033;-71
2023/03/05 05:34:58;;;;;;;8.48;1.70;;;5.30;99.90;;;;;;5031130;28;20411;-72
2023/03/05 05:37:25;;;;;;;12.00;1.90;;;5.30;99.90;;;;;;5030859;28;20057;-73
2023/03/05 05:39:51;;;;;;;13.20;2.58;;;5.30;99.90;;;;;;5030583;28;20459;-72
2023/03/05 05:42:18;;;;;;;14.15;2.13;;;5.20;99.90;;;;;;5030429;28;20212;-72
2023/03/05 05:44:44;;;;;;;7.80;2.17;;;5.30;99.90;;;;;;5030232;28;20352;-71
2023/03/05 05:47:10;;;;;;;6.53;1.50;;;5.40;99.90;;;;;;5030845;28;20033;-73
2023/03/05 05:49:36;;;;;;;9.70;1.77;;;5.30;99.90;;;;;;5030255;28;20286;-73
2023/03/05 05:52:02;;;;;;;7.90;2.38;;;5.20;99.90;;;;;;5030225;28;20113;-72
2023/03/05 05:54:27;;;;;;;7.70;2.00;;;5.20;99.90;;;;;;5030392;28;20033;-73
2023/03/05 05:56:53;;;;;;;10.20;2.20;;;5.20;99.90;;;;;;5029250;28;20025;-72
2023/03/05 05:59:19;;;;;;;14.43;2.25;;;5.30;99.90;;;;;;5030608;28;20022;-72
2023/03/05 06:01:44;;;;;;;6.95;1.80;;;5.40;99.90;;;;;;5029137;28;20038;-73
2023/03/05 06:04:10;;;;;;;8.23;2.05;;;5.30;99.90;;;;;;5030242;28;20168;-74
2023/03/05 06:06:36;;;;;;;8.40;1.80;;;5.40;99.90;;;;;;5030289;28;20499;-73
2023/03/05 06:09:02;;;;;;;9.90;1.80;;;5.20;99.90;;;;;;5028972;28;20037;-72
2023/03/05 06:11:29;;;;;;;15.43;2.00;;;5.20;99.90;;;;;;5030478;28;20048;-71
2023/03/05 06:13:54;;;;;;;7.78;2.15;;;5.20;99.90;;;;;;5030058;28;20498;-71
2023/03/05 06:16:23;;;;;;;13.23;2.25;;;5.10;99.90;;;;;;5030820;28;20049;-72
2023/03/05 06:18:50;;;;;;;5.63;1.73;;;5.20;99.90;;;;;;5033781;28;20083;-72
2023/03/05 06:21:18;;;;;;;5.75;1.88;;;5.10;99.90;;;;;;5032714;28;20356;-72
2023/03/05 06:23:44;;;;;;;11.13;1.58;;;5.10;99.90;;;;;;5033506;28;20356;-71
2023/03/05 06:26:12;;;;;;;11.05;2.80;;;5.10;99.90;;;;;;5034032;28;20018;-71
2023/03/05 06:28:39;;;;;;;11.35;2.28;;;5.10;99.90;;;;;;5033391;28;20478;-71
2023/03/05 06:31:10;;;;;;;6.10;2.35;;;5.10;99.90;;;;;;5032538;28;20143;-72
2023/03/05 06:33:37;;;;;;;8.00;1.75;;;5.30;99.90;;;;;;5032457;28;20034;-71
2023/03/05 06:36:09;;;;;;;8.20;1.70;;;5.30;99.90;;;;;;5033424;28;20068;-72
2023/03/05 06:38:35;;;;;;;9.02;1.65;;;5.40;99.90;;;;;;5033446;28;20026;-72
2023/03/05 06:41:04;;;;;;;8.75;2.00;;;5.30;99.90;;;;;;5033017;28;20053;-72
2023/03/05 06:43:32;;;;;;;13.00;2.22;;;5.30;99.90;;;;;;5032276;28;20073;-73
2023/03/05 06:46:06;;;;;;;11.48;2.20;;;5.40;99.90;;;;;;5033502;28;20042;-72
2023/03/05 06:48:32;;;;;;;4.45;1.52;;;5.40;99.90;;;;;;5033319;28;20033;-72
2023/03/05 06:50:58;;;;;;;11.00;2.10;;;5.30;99.90;;;;;;5033308;28;20034;-73
2023/03/05 06:53:24;;;;;;;5.28;1.65;;;5.40;99.90;;;;;;5033618;28;20017;-74
2023/03/05 06:55:51;;;;;;;14.60;1.98;;;5.50;99.90;;;;;;5033298;28;20045;-73
2023/03/05 06:58:17;;;;;;;16.13;2.53;;;5.50;99.90;;;;;;5032140;28;20542;-72
2023/03/05 07:00:43;;;;;;;9.35;1.75;;;5.40;99.90;;;;;;5033170;28;20025;-73
2023/03/05 07:03:10;;;;;;;6.55;1.70;;;5.70;99.90;;;;;;5033072;28;20029;-73
2023/03/05 07:05:41;;;;;;;6.00;1.40;;;5.60;99.90;;;;;;5032092;28;20018;-73
2023/03/05 07:08:07;;;;;;;8.60;1.83;;;5.60;99.90;;;;;;5032358;28;20022;-74
2023/03/05 07:10:40;;;;;;;5.47;1.50;;;5.40;99.90;;;;;;5031685;28;20045;-73
2023/03/05 07:13:07;;;;;;;7.63;1.73;;;5.50;99.90;;;;;;5033035;28;20040;-72
2023/03/05 07:15:33;;;;;;;4.18;1.40;;;5.50;99.90;;;;;;5032911;28;20048;-73
2023/03/05 07:17:59;;;;;;;6.50;2.00;;;5.70;99.90;;;;;;5032772;28;20348;-72
2023/03/05 07:20:25;;;;;;;10.77;2.20;;;5.50;99.90;;;;;;5033094;28;20041;-70
2023/03/05 07:22:50;;;;;;;6.57;1.80;;;5.50;99.90;;;;;;5032651;28;20079;-71
2023/03/05 07:25:20;;;;;;;9.60;1.67;;;5.50;99.90;;;;;;5032586;28;20026;-69
2023/03/05 07:27:47;;;;;;;3.92;1.52;;;5.60;99.90;;;;;;5031409;28;20025;-70
2023/03/05 07:30:14;;;;;;;10.55;2.10;;;5.60;99.90;;;;;;5032411;28;20050;-72
2023/03/05 07:32:39;;;;;;;3.35;1.23;;;5.70;99.90;;;;;;5032521;28;20029;-70
2023/03/05 07:35:06;;;;;;;6.35;2.10;;;5.70;99.90;;;;;;5033059;28;20087;-71
2023/03/05 07:37:32;;;;;;;8.15;2.15;;;5.70;99.90;;;;;;5032200;28;20033;-70
2023/03/05 07:39:57;;;;;;;16.33;2.08;;;5.70;99.90;;;;;;5032284;28;20052;-70
2023/03/05 07:42:23;;;;;;;11.00;1.60;;;5.80;99.90;;;;;;5031131;28;20083;-71
2023/03/05 07:44:49;;;;;;;7.00;1.95;;;5.80;99.90;;;;;;5032186;28;20021;-71
2023/03/05 07:47:15;;;;;;;7.35;1.60;;;5.80;99.90;;;;;;5031519;28;20056;-70
2023/03/05 07:49:44;;;;;;;7.47;1.63;;;5.80;99.90;;;;;;5030798;28;20099;-71
2023/03/05 07:52:09;;;;;;;10.15;2.22;;;5.70;99.90;;;;;;5031945;28;20033;-71
2023/03/05 07:54:38;;;;;;;11.35;1.63;;;5.90;99.90;;;;;;5031914;28;20091;-71
2023/03/05 07:57:05;;;;;;;6.30;2.08;;;5.90;99.90;;;;;;5030856;28;20467;-70
2023/03/05 07:59:31;;;;;;;7.83;1.50;;;5.90;99.90;;;;;;5032330;28;20037;-70
2023/03/05 08:01:57;;;;;;;8.02;1.58;;;5.90;99.90;;;;;;5030890;28;20048;-70
2023/03/05 08:04:23;;;;;;;6.60;1.95;;;5.90;99.90;;;;;;5031745;28;20030;-71
2023/03/05 08:06:49;;;;;;;6.05;1.60;;;5.90;99.90;;;;;;5031926;28;20403;-71
2023/03/05 08:09:16;;;;;;;7.72;1.98;;;5.80;99.90;;;;;;5030283;28;20030;-71
2023/03/05 08:11:42;;;;;;;3.42;1.33;;;5.80;99.90;;;;;;5031401;28;20032;-70
2023/03/05 08:14:09;;;;;;;7.78;1.58;;;5.80;99.90;;;;;;5031876;28;20057;-71
2023/03/05 08:16:34;;;;;;;15.43;4.78;;;5.80;99.90;;;;;;5031418;28;20037;-71
2023/03/05 08:19:00;;;;;;;5.53;1.67;;;5.90;99.90;;;;;;5031477;28;20374;-71
2023/03/05 08:21:29;;;;;;;6.07;1.77;;;5.70;99.90;;;;;;5031357;28;20026;-75
2023/03/05 08:23:56;;;;;;;7.78;1.88;;;5.70;99.90;;;;;;5030485;28;20029;-73
2023/03/05 08:26:26;;;;;;;4.80;1.60;;;5.70;99.90;;;;;;5032042;28;20101;-72
2023/03/05 08:28:52;;;;;;;4.07;1.75;;;5.90;99.90;;;;;;5031129;28;20480;-74
2023/03/05 08:31:20;;;;;;;9.82;2.40;;;5.90;99.90;;;;;;5030328;28;20042;-71
2023/03/05 08:33:50;;;;;;;5.07;2.08;;;5.70;99.90;;;;;;5031280;28;20095;-72
2023/03/05 08:36:16;;;;;;;9.93;2.30;;;5.70;99.90;;;;;;5031363;28;20025;-71
2023/03/05 08:38:43;;;;;;;5.60;1.83;;;6.00;99.90;;;;;;5030721;28;20021;-73
2023/03/05 08:41:09;;;;;;;7.68;1.73;;;5.80;99.90;;;;;;5031700;28;20021;-70
2023/03/05 08:43:36;;;;;;;5.57;1.67;;;5.70;99.90;;;;;;5030160;28;20103;-73
2023/03/05 08:46:02;;;;;;;6.28;1.75;;;5.60;99.90;;;;;;5031033;28;20026;-71
2023/03/05 08:48:29;;;;;;;5.30;1.85;;;5.70;99.90;;;;;;5030866;28;20054;-71
2023/03/05 08:50:55;;;;;;;5.45;1.42;;;5.70;99.90;;;;;;5030727;28;20036;-71
2023/03/05 08:53:21;;;;;;;3.97;1.60;;;5.90;99.90;;;;;;5031599;28;20028;-74
2023/03/05 08:55:57;;;;;;;5.72;2.13;;;5.80;99.90;;;;;;5030967;28;20539;-72
2023/03/05 08:58:23;;;;;;;5.38;1.58;;;5.90;99.90;;;;;;5031199;28;20121;-71
2023/03/05 09:00:49;;;;;;;11.25;2.28;;;6.00;99.90;;;;;;5029756;28;20589;-71
2023/03/05 09:03:15;;;;;;;3.80;1.95;;;5.90;99.90;;;;;;5029986;28;20022;-73
2023/03/05 09:05:40;;;;;;;7.38;1.90;;;5.90;99.90;;;;;;5030906;28;20325;-72
2023/03/05 09:08:06;;;;;;;6.10;1.65;;;6.00;99.90;;;;;;5031110;28;20030;-73
2023/03/05 09:10:31;;;;;;;11.70;2.25;;;6.20;99.90;;;;;;5029406;28;20044;-71
2023/03/05 09:12:57;;;;;;;7.70;2.38;;;6.10;99.90;;;;;;5030456;28;20038;-72
2023/03/05 09:15:23;;;;;;;8.18;1.90;;;6.10;99.90;;;;;;5030502;28;20041;-70
2023/03/05 09:17:49;;;;;;;8.10;2.15;;;6.10;99.90;;;;;;5029319;28;20022;-72
2023/03/05 09:20:14;;;;;;;6.15;2.00;;;6.30;99.90;;;;;;5030905;28;20036;-70
2023/03/05 09:22:40;;;;;;;7.75;2.65;;;6.40;99.90;;;;;;5030410;28;20033;-71
2023/03/05 09:25:07;;;;;;;4.70;1.80;;;6.30;99.90;;;;;;5030431;28;20033;-71
2023/03/05 09:27:34;;;;;;;3.80;1.83;;;6.50;99.90;;;;;;5030527;28;20030;-73
2023/03/05 09:29:59;;;;;;;6.93;2.03;;;6.50;99.90;;;;;;5030068;28;20041;-71
2023/03/05 09:32:25;;;;;;;13.82;2.47;;;6.40;99.90;;;;;;5030624;28;20025;-71
2023/03/05 09:34:50;;;;;;;4.25;1.80;;;6.50;99.90;;;;;;5030258;28;20112;-71
2023/03/05 09:37:16;;;;;;;8.35;2.40;;;6.50;99.90;;;;;;5030248;28;20515;-72
2023/03/05 09:39:42;;;;;;;6.22;2.33;;;6.40;99.90;;;;;;5030201;28;20052;-72
2023/03/05 09:42:08;;;;;;;4.93;2.00;;;6.60;99.90;;;;;;5030100;28;20048;-72
2023/03/05 09:44:50;;;;;;;3.20;1.40;;;6.60;99.90;;;;;;5030207;28;20180;-74
2023/03/05 09:47:22;;;;;;;7.13;1.48;;;6.60;99.90;;;;;;5031049;28;20410;-73
2023/03/05 09:50:09;;;;;;;8.40;2.10;;;6.70;99.90;;;;;;5030109;28;20044;-72
2023/03/05 09:52:56;;;;;;;6.80;1.40;;;6.90;99.90;;;;;;5034355;28;20030;-74
2023/03/05 09:55:35;;;;;;;4.07;1.70;;;7.10;99.50;;;;;;5034115;28;20045;-73
2023/03/05 09:58:14;;;;;;;12.25;2.17;;;7.50;99.00;;;;;;5034115;28;20476;-72
2023/03/05 10:00:53;;;;;;;3.35;1.60;;;7.50;99.00;;;;;;5032960;28;20126;-73
2023/03/05 10:03:27;;;;;;;7.45;1.60;;;7.60;98.60;;;;;;5034074;28;20108;-71
2023/03/05 10:06:11;;;;;;;7.85;1.73;;;7.60;98.30;;;;;;5034008;28;20022;-72
2023/03/05 10:09:02;;;;;;;4.60;1.20;;;7.60;97.70;;;;;;5033746;28;20026;-71
2023/03/05 10:11:54;;;;;;;2.42;0.90;;;7.90;97.40;;;;;;5034204;28;20502;-71
2023/03/05 10:14:33;;;;;;;6.88;1.27;;;8.10;97.50;;;;;;5033906;28;20092;-71
2023/03/05 10:17:17;;;;;;;3.65;1.55;;;8.40;97.00;;;;;;5032869;28;20103;-72
2023/03/05 10:20:02;;;;;;;5.22;1.10;;;8.30;96.20;;;;;;5033089;28;20376;-72
2023/03/05 10:23:06;;;;;;;6.93;1.05;;;8.30;96.80;;;;;;5032810;28;20025;-72
2023/03/05 10:26:02;;;;;;;4.63;1.50;;;8.40;96.50;;;;;;5030306;28;20583;-71
2023/03/05 10:28:49;;;;;;;4.95;1.30;;;8.50;96.30;;;;;;5015613;28;20037;-71
2023/03/05 10:31:24;;;;;;;3.97;1.40;;;8.00;95.70;;;;;;5032351;28;20072;-71
2023/03/05 10:34:08;;;;;;;9.52;1.42;;;8.20;96.20;;;;;;5033560;28;20394;-72
2023/03/05 10:36:45;;;;;;;7.53;2.00;;;8.30;95.80;;;;;;5032569;28;20052;-71
2023/03/05 10:39:48;;;;;;;3.08;1.30;;;8.50;95.90;;;;;;5032178;28;20072;-70
2023/03/05 10:42:29;;;;;;;5.28;1.48;;;8.90;95.70;;;;;;5033515;28;20156;-70
2023/03/05 10:44:57;;;;;;;11.70;1.80;;;8.90;95.30;;;;;;5033282;28;20026;-71
2023/03/05 10:47:32;;;;;;;9.35;1.42;;;9.00;94.90;;;;;;5033725;28;20040;-75
2023/03/05 10:49:58;;;;;;;5.70;1.80;;;9.00;94.50;;;;;;5033151;28;20069;-71
2023/03/05 10:52:35;;;;;;;3.22;1.25;;;8.90;94.10;;;;;;5033364;28;20057;-73
2023/03/05 10:55:12;;;;;;;7.40;1.35;;;9.30;93.40;;;;;;5032165;28;20440;-72
2023/03/05 10:57:37;;;;;;;5.97;1.33;;;9.60;94.00;;;;;;5033043;28;20112;-72
2023/03/05 11:00:18;;;;;;;5.53;1.80;;;10.40;91.80;;;;;;5033366;28;20531;-73
2023/03/05 11:02:59;;;;;;;1.63;0.90;;;10.00;90.20;;;;;;5033039;28;20018;-76
2023/03/05 11:05:58;;;;;;;7.03;1.13;;;10.60;90.70;;;;;;5032841;28;20028;-74
2023/03/05 11:08:30;;;;;;;4.28;0.50;;;11.00;90.30;;;;;;5032638;28;20034;-73
2023/03/05 11:11:17;;;;;;;2.10;0.70;;;10.90;91.00;;;;;;5033133;28;20029;-73
2023/03/05 11:13:59;;;;;;;5.25;0.80;;;10.80;90.00;;;;;;5032985;28;20504;-72
2023/03/05 11:16:33;;;;;;;2.95;0.77;;;10.60;88.70;;;;;;5032647;28;20029;-72
2023/03/05 11:19:17;;;;;;;4.32;1.08;;;9.90;90.10;;;;;;5031695;28;20463;-73
2023/03/05 11:21:44;;;;;;;4.20;0.75;;;9.60;91.10;;;;;;5032517;28;20041;-73
2023/03/05 11:24:17;;;;;;;7.63;2.22;;;9.70;91.20;;;;;;5032523;28;20034;-72
2023/03/05 11:26:51;;;;;;;7.13;2.40;;;9.20;91.90;;;;;;5032566;28;20029;-72
2023/03/05 11:29:26;;;;;;;6.10;1.60;;;9.10;92.50;;;;;;5031653;28;20033;-73
2023/03/05 11:31:53;;;;;;;4.35;1.30;;;9.10;92.10;;;;;;5032395;28;20030;-71
2023/03/05 11:34:18;;;;;;;3.67;1.08;;;9.30;92.40;;;;;;5031516;28;20120;-71
2023/03/05 11:36:51;;;;;;;4.03;1.20;;;9.00;92.40;;;;;;5032318;28;20117;-69
2023/03/05 11:39:21;;;;;;;5.97;1.27;;;9.00;93.30;;;;;;5031272;28;20064;-70
2023/03/05 11:42:06;;;;;;;4.88;1.52;;;9.20;93.20;;;;;;5032316;28;20108;-70
2023/03/05 11:44:41;;;;;;;10.75;2.35;;;8.70;92.20;;;;;;5031879;28;20091;-70
2023/03/05 11:47:21;;;;;;;4.15;1.05;;;8.40;92.80;;;;;;5031100;28;20124;-68
2023/03/05 11:49:51;;;;;;;5.18;2.25;;;8.20;92.80;;;;;;5032100;28;20079;-69
2023/03/05 11:52:31;;;;;;;8.07;1.10;;;8.20;94.00;;;;;;5032056;28;20037;-70
2023/03/05 11:55:19;;;;;;;7.18;1.60;;;8.10;93.90;;;;;;5031736;28;20051;-70
2023/03/05 11:58:10;;;;;;;6.38;1.40;;;8.00;94.70;;;;;;5031655;28;20025;-68
2023/03/05 12:00:37;;;;;;;9.57;1.92;;;8.20;94.60;;;;;;5031898;28;20352;-71
2023/03/05 12:03:25;;;;;;;7.23;2.37;;;8.20;94.70;;;;;;5031235;28;20033;-71
2023/03/05 12:05:53;;;;;;;;;;;8.10;94.90;;;;;;5032681;28;20072;-72
2023/03/05 12:08:24;;;;;;;4.90;1.50;;;8.20;94.80;;;;;;5031275;28;20224;-71
2023/03/05 12:10:50;;;;;;;3.45;0.95;;;8.10;94.70;;;;;;5031534;28;20098;-70
2023/03/05 12:13:29;;;;;;;5.47;0.88;;;8.20;94.50;;;;;;5030928;28;20112;-71
2023/03/05 12:16:03;;;;;;;3.95;1.30;;;7.90;94.60;;;;;;5031738;28;20041;-70
2023/03/05 12:18:35;;;;;;;7.53;1.10;;;7.70;94.80;;;;;;5031583;28;20344;-73
2023/03/05 12:21:13;;;;;;;2.67;0.82;;;7.70;95.30;;;;;;5030371;28;20040;-72
2023/03/05 12:23:50;;;;;;;6.88;1.65;;;7.70;95.50;;;;;;5031837;28;20041;-71
2023/03/05 12:26:16;;;;;;;6.68;1.67;;;7.70;95.90;;;;;;5031874;28;20430;-71
2023/03/05 12:28:44;;;;;;;7.07;1.50;;;7.70;95.90;;;;;;5031204;28;20120;-70
2023/03/05 12:31:27;;;;;;;9.02;2.13;;;8.10;95.80;;;;;;5031367;28;20128;-71
2023/03/05 12:33:53;;;;;;;6.95;1.40;;;7.90;95.90;;;;;;5031432;28;20060;-70
2023/03/05 12:36:18;;;;;;;11.20;1.70;;;8.00;95.80;;;;;;5030308;28;20038;-71
2023/03/05 12:38:54;;;;;;;7.63;1.63;;;8.10;96.10;;;;;;5030337;28;20382;-70
2023/03/05 12:41:22;;;;;;;6.63;1.73;;;8.40;95.90;;;;;;5031811;28;20426;-69
2023/03/05 12:44:06;;;;;;;14.27;1.70;;;8.50;95.10;;;;;;5030260;28;20129;-71
2023/03/05 12:46:36;;;;;;;9.73;2.15;;;8.40;95.00;;;;;;5031216;28;20083;-70
2023/03/05 12:49:21;;;;;;;4.55;1.35;;;8.50;94.80;;;;;;5031099;28;20072;-70
2023/03/05 12:51:52;;;;;;;6.45;1.75;;;8.50;94.10;;;;;;5029996;28;20029;-70
2023/03/05 12:54:33;;;;;;;3.88;1.13;;;8.20;94.10;;;;;;5031163;28;20463;-69
2023/03/05 12:57:00;;;;;;;5.32;1.60;;;8.50;94.60;;;;;;5031006;28;20026;-70
2023/03/05 13:00:00;;;;;;;11.35;1.35;;;8.50;94.50;;;;;;5030353;28;20029;-71
2023/03/05 13:02:42;;;;;;;2.72;0.70;;;8.30;94.30;;;;;;5030034;28;20088;-71
2023/03/05 13:05:20;;;;;;;5.25;1.02;;;8.10;94.60;;;;;;5031047;28;20037;-70